Syohoumaru — JD3840 — position and weather

sailwx.info

Track history (hours):
 
Tides and Currents Weather Stations Pressure Air Temp Water Temp Dewpoint Dewpoint Depression Visibility Wind Speed Wind Dir Waves Ship Positions

Syohoumaru

Last reported at 2017-Nov-17 22:12 UTC. Time now 2017-Nov-19 21:50 UTC.
Position N 34°52' E 139°49'.

; draft 4.2 m.

Type: Cargo ship. MMSI: 431006355.

Date/timePositionNaut miles runAvg speedWind from/ knotsBaromVisibWave heightAir tempDewpointWater temp
2017-Nov-17 22:12N 34°52' E 139°49'412.2
2017-Nov-17 21:51N 34°55' E 139°45'411.8
2017-Nov-17 21:31N 34°59' E 139°43'611.2
2017-Nov-17 21:00N 35°05' E 139°44'611.2
2017-Nov-17 20:31N 35°10' E 139°46'612.0
2017-Nov-17 20:01N 35°16' E 139°46'612.4
2017-Nov-17 19:31N 35°21' E 139°42'4 8.4
2017-Nov-17 19:00N 35°24' E 139°37'0 0.0
2017-Nov-17 18:31N 35°24' E 139°37'0 0.0
2017-Nov-17 18:01N 35°24' E 139°37'0 0.0
2017-Nov-17 17:29N 35°24' E 139°37'0 0.0
2017-Nov-17 16:59N 35°24' E 139°37'0 0.0
2017-Nov-17 16:29N 35°24' E 139°37'0 0.0
2017-Nov-17 15:59N 35°24' E 139°37'0 0.0
2017-Nov-17 15:29N 35°24' E 139°37'0 0.0
2017-Nov-17 14:59N 35°24' E 139°37'0 0.0
2017-Nov-17 14:29N 35°24' E 139°37'1 2.8
2017-Nov-17 14:00N 35°24' E 139°39'510.5
2017-Nov-17 13:30N 35°20' E 139°43'611.4
2017-Nov-17 13:00N 35°15' E 139°47'511.0
2017-Nov-17 12:30N 35°10' E 139°46'612.1
2017-Nov-17 12:00N 35°04' E 139°45'  
Track history (hours):
 
Tides and Currents Weather Stations Pressure Air Temp Water Temp Dewpoint Dewpoint Depression Visibility Wind Speed Wind Dir Waves Ship Positions

Syohoumaru

Last reported at 2017-Nov-17 22:12 UTC. Time now 2017-Nov-19 21:50 UTC.
Position N 34°52' E 139°49'.

; draft 4.2 m.

Type: Cargo ship. MMSI: 431006355.

Date/timePositionNaut miles runAvg speedWind from/ knotsBaromVisibWave heightAir tempDewpointWater temp
2017-Nov-17 22:12N 34°52' E 139°49'412.2
2017-Nov-17 21:51N 34°55' E 139°45'411.8
2017-Nov-17 21:31N 34°59' E 139°43'611.2
2017-Nov-17 21:00N 35°05' E 139°44'611.2
2017-Nov-17 20:31N 35°10' E 139°46'612.0
2017-Nov-17 20:01N 35°16' E 139°46'612.4
2017-Nov-17 19:31N 35°21' E 139°42'4 8.4
2017-Nov-17 19:00N 35°24' E 139°37'0 0.0
2017-Nov-17 18:31N 35°24' E 139°37'0 0.0
2017-Nov-17 18:01N 35°24' E 139°37'0 0.0
2017-Nov-17 17:29N 35°24' E 139°37'0 0.0
2017-Nov-17 16:59N 35°24' E 139°37'0 0.0
2017-Nov-17 16:29N 35°24' E 139°37'0 0.0
2017-Nov-17 15:59N 35°24' E 139°37'0 0.0
2017-Nov-17 15:29N 35°24' E 139°37'0 0.0
2017-Nov-17 14:59N 35°24' E 139°37'0 0.0
2017-Nov-17 14:29N 35°24' E 139°37'1 2.8
2017-Nov-17 14:00N 35°24' E 139°39'510.5
2017-Nov-17 13:30N 35°20' E 139°43'611.4
2017-Nov-17 13:00N 35°15' E 139°47'511.0
2017-Nov-17 12:30N 35°10' E 139°46'612.1
2017-Nov-17 12:00N 35°04' E 139°45'  

Dump ship's entire track history